This is the latest recevied weather packets stored in our database for station/object AC0MR. If no packets are shown the sender has not sent any weather packets the latest 10 day(s).
| Time | Temp. | Humidity | Pressure | Rain* | Wind** | Luminosity | Snow |
|---|---|---|---|---|---|---|---|
| 1777904118 | 18.89° C | 52% | 1001.3 hPa | 0 mm | - | 370 W/m² | - |
| 1777903518 | 18.33° C | 59% | 1001.3 hPa | 0 mm | - | 375 W/m² | - |
| 1777902918 | 16.67° C | 62% | 1001.3 hPa | 0 mm | - | 305 W/m² | - |
| 1777902318 | 15.56° C | 66% | 1001.3 hPa | 0 mm | - | 310 W/m² | - |
| 1777901718 | 14.44° C | 69% | 1001.3 hPa | 0 mm | - | 308 W/m² | - |
| 1777901118 | 12.78° C | 71% | 1001.3 hPa | 0 mm | - | 320 W/m² | - |
| 1777900518 | 11.67° C | 75% | 1001.4 hPa | 0 mm | - | 306 W/m² | - |
| 1777899918 | 10.56° C | 78% | 1001.5 hPa | 0 mm | - | 216 W/m² | - |
| 1777899318 | 9.44° C | 80% | 1001.5 hPa | 0 mm | - | 52 W/m² | - |
| 1777898718 | 8.89° C | 81% | 1001.7 hPa | 0 mm | - | 71 W/m² | - |
| 1777898118 | 8.33° C | 81% | 1001.7 hPa | 0 mm | - | 92 W/m² | - |
| 1777897518 | 7.78° C | 80% | 1001.8 hPa | 0 mm | - | 47 W/m² | - |
| 1777896918 | 7.22° C | 80% | 1001.7 hPa | 0 mm | - | 37 W/m² | - |
| 1777896317 | 6.67° C | 79% | 1001.8 hPa | 0 mm | - | 34 W/m² | - |
| 1777895718 | 6.67° C | 78% | 1001.8 hPa | 0 mm | - | 32 W/m² | - |
| 1777895118 | 6.67° C | 78% | 1001.9 hPa | 0 mm | - | 28 W/m² | - |
| 1777894517 | 6.67° C | 77% | 1001.9 hPa | 0 mm | - | 22 W/m² | - |
| 1777893918 | 6.67° C | 77% | 1001.9 hPa | 0 mm | - | 17 W/m² | - |
| 1777893318 | 6.67° C | 77% | 1001.9 hPa | 0 mm | - | 12 W/m² | - |
| 1777892717 | 6.67° C | 78% | 1002 hPa | 0 mm | - | 6 W/m² | - |
| 1777892119 | 6.67° C | 79% | 1002.3 hPa | 0 mm | - | 0 W/m² | - |
| 1777891519 | 6.11° C | 80% | 1002.3 hPa | 0 mm | - | 0 W/m² | - |
| 1777890920 | 6.11° C | 81% | 1002.4 hPa | 0 mm | - | 0 W/m² | - |
| 1777890318 | 5.56° C | 81% | 1002.4 hPa | 0 mm | - | 0 W/m² | - |
| 1777889719 | 5.56° C | 81% | 1002.4 hPa | 0 mm | - | 0 W/m² | - |
* Rain latest hour (hover to see other rain measurements)
** Current wind speed in m/s (hover to see current wind gust speed)